createdAt,value
2022-11-09T00:01:16.043Z,29
2022-11-09T00:06:18.401Z,27.5
2022-11-09T00:11:20.707Z,27.1
2022-11-09T00:16:23.439Z,26.9
2022-11-09T00:21:25.747Z,25.8
2022-11-09T00:26:27.779Z,38.1
2022-11-09T00:31:28.346Z,26.3
2022-11-09T00:36:30.325Z,27.1
2022-11-09T00:41:32.352Z,23.1
2022-11-09T00:46:34.501Z,25.9
2022-11-09T00:51:37.282Z,27.4
2022-11-09T00:56:39.218Z,24.7
2022-11-09T01:01:41.205Z,24.6
2022-11-09T01:06:43.391Z,25.6
2022-11-09T01:11:45.388Z,23.1
2022-11-09T01:16:47.584Z,22.4
2022-11-09T01:21:49.871Z,22.9
2022-11-09T01:26:51.963Z,22.5
2022-11-09T01:31:54.478Z,21.9
2022-11-09T01:36:56.461Z,21.5
2022-11-09T01:41:58.300Z,21.5
2022-11-09T01:47:00.322Z,21
2022-11-09T01:52:03.331Z,21.1
2022-11-09T01:57:08.178Z,22.9
2022-11-09T02:02:05.933Z,21.7
2022-11-09T02:07:22.236Z,21.2
2022-11-09T02:12:20.550Z,21.6
2022-11-09T02:17:25.963Z,20.4
2022-11-09T02:22:28.585Z,20.7
2022-11-09T02:27:30.590Z,21.8
2022-11-09T02:32:32.537Z,21.8
2022-11-09T02:37:34.377Z,24.7
2022-11-09T02:42:36.257Z,22
2022-11-09T02:47:38.073Z,23.7
2022-11-09T02:52:39.907Z,22.9
2022-11-09T02:57:41.802Z,24.2
2022-11-09T03:02:43.989Z,22.4
2022-11-09T03:07:45.931Z,22.8
2022-11-09T03:12:47.791Z,22.4
2022-11-09T03:17:49.913Z,24.4
2022-11-09T03:22:52.097Z,30
2022-11-09T03:27:54.241Z,24.3
2022-11-09T03:32:56.572Z,24.1
2022-11-09T03:37:58.491Z,24.6
2022-11-09T03:43:00.771Z,24.4
2022-11-09T03:48:02.678Z,23.4
2022-11-09T03:53:04.615Z,23
2022-11-09T03:58:06.454Z,23.2
2022-11-09T04:03:08.626Z,24
2022-11-09T04:08:10.514Z,23.7
2022-11-09T04:13:12.539Z,24.9
2022-11-09T04:18:14.456Z,23.6
2022-11-09T04:23:16.682Z,23.8
2022-11-09T04:28:19.864Z,24.6
2022-11-09T04:33:22.546Z,23.1
2022-11-09T04:38:24.904Z,23.5
2022-11-09T04:43:26.827Z,24.5
2022-11-09T04:48:29.078Z,25.8
2022-11-09T04:53:31.277Z,24.7
2022-11-09T04:58:33.302Z,38.1
2022-11-09T05:03:35.214Z,24.1
2022-11-09T05:08:37.305Z,25.3
2022-11-09T05:13:39.195Z,25.5
2022-11-09T05:18:41.272Z,24.1
2022-11-09T05:23:43.404Z,23.3
2022-11-09T05:28:46.892Z,22.6
2022-11-09T05:33:49.007Z,23.7
2022-11-09T05:38:50.882Z,23.6
2022-11-09T05:43:53.326Z,22.2
2022-11-09T05:48:55.373Z,25.3
2022-11-09T05:53:57.263Z,24.8
2022-11-09T05:58:59.132Z,23.7
2022-11-09T06:04:01.354Z,21.4
2022-11-09T06:09:03.208Z,26.9
2022-11-09T06:14:05.053Z,23.3
2022-11-09T06:19:06.916Z,23
2022-11-09T06:24:08.961Z,22.1
2022-11-09T06:29:11.141Z,24.5
2022-11-09T06:34:12.971Z,22.2
2022-11-09T06:39:14.782Z,24.1
2022-11-09T06:44:16.763Z,24.7
2022-11-09T06:49:18.530Z,25.7
2022-11-09T06:54:20.438Z,25.2
2022-11-09T06:59:22.344Z,25.1
2022-11-09T07:04:24.254Z,25.5
2022-11-09T07:09:26.071Z,23
2022-11-09T07:14:27.920Z,22.4
2022-11-09T07:19:29.727Z,24.1
2022-11-09T07:24:31.783Z,23.7
2022-11-09T07:29:33.670Z,24.7
2022-11-09T07:34:35.509Z,24.5
2022-11-09T07:39:37.348Z,25.8
2022-11-09T07:44:39.280Z,25.4
2022-11-09T07:49:41.327Z,23.5
2022-11-09T07:54:44.450Z,25.3
2022-11-09T07:59:43.525Z,26
2022-11-09T08:04:45.555Z,25.4
2022-11-09T08:09:47.557Z,24.8
2022-11-09T08:14:49.544Z,26.2
2022-11-09T08:19:51.540Z,25.7
2022-11-09T08:24:53.757Z,24.8
2022-11-09T08:29:55.914Z,23.9
2022-11-09T08:34:58.131Z,23.4
2022-11-09T08:40:00.338Z,25
2022-11-09T08:45:02.320Z,26.1
2022-11-09T08:50:04.555Z,27.5
2022-11-09T08:55:06.724Z,28.5
2022-11-09T09:00:08.754Z,28.1
2022-11-09T09:05:10.778Z,29.4
2022-11-09T09:10:12.704Z,30.3
2022-11-09T09:15:14.792Z,30.6
2022-11-09T09:20:16.799Z,30.4
2022-11-09T09:25:19.313Z,31.3
2022-11-09T09:30:21.637Z,30.7
2022-11-09T09:35:23.880Z,30.9
2022-11-09T09:40:26.466Z,30.2
2022-11-09T09:45:28.544Z,30.1
2022-11-09T09:50:30.651Z,29.2
2022-11-09T09:55:32.852Z,29.7
2022-11-09T10:00:35.038Z,28.2
2022-11-09T10:05:36.997Z,27.6
2022-11-09T10:10:39.070Z,27.4
2022-11-09T10:15:41.296Z,27.8
2022-11-09T10:20:43.421Z,27.6
2022-11-09T10:26:05.464Z,27.9
2022-11-09T10:30:46.637Z,29.8
2022-11-09T10:35:48.773Z,28.1
2022-11-09T10:40:50.779Z,30.2
2022-11-09T10:45:53.029Z,31.3
2022-11-09T10:50:55.081Z,31.2
2022-11-09T10:55:57.143Z,32.7
2022-11-09T11:00:59.447Z,30.3
2022-11-09T11:06:01.732Z,31.7
2022-11-09T11:11:34.766Z,30.6
2022-11-09T11:16:09.289Z,32.3
2022-11-09T11:21:18.881Z,33.1
2022-11-09T11:26:11.939Z,33.2
2022-11-09T11:31:13.955Z,34.4
2022-11-09T11:36:16.053Z,32.3
2022-11-09T11:41:18.032Z,31.6
2022-11-09T11:46:19.950Z,30.2
2022-11-09T11:51:21.911Z,31.2
2022-11-09T11:56:23.941Z,32.2
2022-11-09T12:01:26.007Z,33.4
2022-11-09T12:06:28.260Z,33.2
2022-11-09T12:11:30.628Z,33.4
2022-11-09T12:17:56.410Z,38.8
2022-11-09T12:21:38.504Z,35.9
2022-11-09T12:26:40.690Z,36.1
2022-11-09T12:31:42.638Z,37.9
2022-11-09T12:36:44.788Z,38.3
2022-11-09T12:41:46.723Z,39.6
2022-11-09T12:46:48.820Z,41.4
2022-11-09T12:51:58.780Z,41
2022-11-09T12:57:01.306Z,41
2022-11-09T13:02:03.383Z,42.9
2022-11-09T13:07:05.825Z,40.7
2022-11-09T13:17:17.257Z,38.1
2022-11-09T13:22:19.218Z,40.4
2022-11-09T13:27:21.166Z,42
2022-11-09T13:32:23.238Z,42.4
2022-11-09T13:37:25.208Z,40.5
2022-11-09T13:42:27.494Z,41.3
2022-11-09T13:47:29.454Z,41.5
2022-11-09T13:52:31.458Z,45.3
2022-11-09T13:57:33.448Z,40.2
2022-11-09T14:02:35.380Z,39
2022-11-09T14:07:37.310Z,40.1
2022-11-09T14:12:39.412Z,39.5
2022-11-09T14:17:41.329Z,40.7
2022-11-09T14:22:43.268Z,40.7
2022-11-09T14:27:45.437Z,40.2
2022-11-09T14:32:47.637Z,59
2022-11-09T14:37:48.401Z,40.3
2022-11-09T14:42:51.020Z,39.7
2022-11-09T14:47:53.230Z,37.2
2022-11-09T14:52:55.596Z,36.3
2022-11-09T14:57:57.599Z,37.5
2022-11-09T15:02:59.607Z,37.9
2022-11-09T15:08:01.468Z,37.7
2022-11-09T15:13:03.377Z,38.3
2022-11-09T15:18:05.260Z,38
2022-11-09T15:23:07.504Z,38
2022-11-09T15:28:12.622Z,37.7
2022-11-09T15:33:15.137Z,37
2022-11-09T15:38:17.079Z,37.6
2022-11-09T15:43:19.717Z,37.6
2022-11-09T15:48:22.750Z,36.6
2022-11-09T15:53:25.297Z,37.2
2022-11-09T15:58:27.255Z,36.5
2022-11-09T16:03:29.231Z,36.5
2022-11-09T16:08:31.195Z,38.2
2022-11-09T16:13:33.164Z,38.7
2022-11-09T16:18:35.189Z,38.9
2022-11-09T16:23:37.223Z,39.5
2022-11-09T16:28:39.437Z,40
2022-11-09T16:33:41.608Z,39.1
2022-11-09T16:38:43.984Z,38.9
2022-11-09T16:43:46.221Z,42.4
2022-11-09T16:48:48.287Z,41.3
2022-11-09T16:53:50.438Z,40.4
2022-11-09T16:58:52.887Z,40
2022-11-09T17:03:55.005Z,40.5
2022-11-09T17:08:57.422Z,39.9
2022-11-09T17:13:59.621Z,39.1
2022-11-09T17:19:01.720Z,37.9
2022-11-09T17:24:03.845Z,38.7
2022-11-09T17:29:06.202Z,40.3
2022-11-09T17:34:08.125Z,37.1
2022-11-09T17:39:10.299Z,37.7
2022-11-09T17:44:12.237Z,38.2
2022-11-09T17:49:14.280Z,38.1
2022-11-09T17:54:16.227Z,37.2
2022-11-09T17:59:18.236Z,37.3
2022-11-09T18:04:20.240Z,38.1
2022-11-09T18:09:52.212Z,36.7
2022-11-09T18:14:24.410Z,37
2022-11-09T18:19:26.441Z,36.8
2022-11-09T18:24:28.510Z,37
2022-11-09T18:29:30.677Z,37.5
2022-11-09T18:34:32.689Z,39.4
2022-11-09T18:39:34.780Z,39.2
2022-11-09T18:44:36.759Z,39.7
2022-11-09T18:49:38.728Z,40.1
2022-11-09T18:54:40.856Z,40.1
2022-11-09T18:59:43.126Z,40.9
2022-11-09T19:04:45.014Z,41.1
2022-11-09T19:09:46.994Z,41.6
2022-11-09T19:14:55.909Z,41.4
2022-11-09T19:19:57.899Z,40.7
2022-11-09T19:25:02.336Z,39.9
2022-11-09T19:30:10.342Z,42.1
2022-11-09T19:35:12.696Z,41.8
2022-11-09T19:40:14.887Z,42.3
2022-11-09T19:45:17.938Z,42.5
2022-11-09T19:50:20.223Z,41.3
2022-11-09T19:55:22.504Z,41.8
2022-11-09T20:00:24.637Z,41.1
2022-11-09T20:05:26.572Z,41.5
2022-11-09T20:10:28.517Z,42
2022-11-09T20:15:30.520Z,39.8
2022-11-09T20:20:32.571Z,41.6
2022-11-09T20:25:35.814Z,54.8
2022-11-09T22:51:03.535Z,41.1
2022-11-09T22:56:05.834Z,36.2
2022-11-09T23:01:08.216Z,36.8
2022-11-09T23:06:10.315Z,37.9
2022-11-09T23:11:12.534Z,38.4
2022-11-09T23:16:14.473Z,39.1
2022-11-09T23:21:16.418Z,39.1
2022-11-09T23:26:18.446Z,38.3
2022-11-09T23:31:20.386Z,38.4
2022-11-09T23:36:22.458Z,37.1
2022-11-09T23:41:24.428Z,36.8
2022-11-09T23:46:26.661Z,36.7
2022-11-09T23:51:29.235Z,36.5
2022-11-09T23:56:31.215Z,52.3
